sensor_id;sensor_type;location;lat;lon;timestamp;P1;durP1;ratioP1;P2;durP2;ratioP2
35961;SDS011;22044;48.298;10.008;2023-05-07T00:00:09;4.87;;;3.90;;
35961;SDS011;22044;48.298;10.008;2023-05-07T00:02:55;5.67;;;4.57;;
35961;SDS011;22044;48.298;10.008;2023-05-07T00:05:41;4.70;;;4.00;;
35961;SDS011;22044;48.298;10.008;2023-05-07T00:08:27;7.40;;;4.80;;
35961;SDS011;22044;48.298;10.008;2023-05-07T00:11:14;6.67;;;5.03;;
35961;SDS011;22044;48.298;10.008;2023-05-07T00:13:59;6.73;;;5.20;;
35961;SDS011;22044;48.298;10.008;2023-05-07T00:16:45;6.67;;;6.00;;
35961;SDS011;22044;48.298;10.008;2023-05-07T00:19:31;6.67;;;6.07;;
35961;SDS011;22044;48.298;10.008;2023-05-07T00:22:16;6.63;;;6.07;;
35961;SDS011;22044;48.298;10.008;2023-05-07T00:25:02;8.97;;;6.00;;
35961;SDS011;22044;48.298;10.008;2023-05-07T00:27:49;7.47;;;5.83;;
35961;SDS011;22044;48.298;10.008;2023-05-07T00:30:34;7.57;;;6.67;;
35961;SDS011;22044;48.298;10.008;2023-05-07T00:33:20;7.43;;;6.73;;
35961;SDS011;22044;48.298;10.008;2023-05-07T00:36:06;8.67;;;6.90;;
35961;SDS011;22044;48.298;10.008;2023-05-07T00:38:53;9.20;;;7.73;;
35961;SDS011;22044;48.298;10.008;2023-05-07T00:41:39;8.70;;;7.63;;
35961;SDS011;22044;48.298;10.008;2023-05-07T00:44:26;10.33;;;8.13;;
35961;SDS011;22044;48.298;10.008;2023-05-07T00:47:12;9.80;;;8.00;;
35961;SDS011;22044;48.298;10.008;2023-05-07T00:49:59;8.93;;;7.43;;
35961;SDS011;22044;48.298;10.008;2023-05-07T00:52:44;8.90;;;7.83;;
35961;SDS011;22044;48.298;10.008;2023-05-07T00:55:30;8.67;;;6.87;;
35961;SDS011;22044;48.298;10.008;2023-05-07T00:58:16;7.77;;;6.97;;
35961;SDS011;22044;48.298;10.008;2023-05-07T01:01:03;9.20;;;7.13;;
35961;SDS011;22044;48.298;10.008;2023-05-07T01:03:50;8.00;;;7.20;;
35961;SDS011;22044;48.298;10.008;2023-05-07T01:06:35;8.27;;;7.47;;
35961;SDS011;22044;48.298;10.008;2023-05-07T01:09:21;8.93;;;7.23;;
35961;SDS011;22044;48.298;10.008;2023-05-07T01:12:07;7.83;;;7.13;;
35961;SDS011;22044;48.298;10.008;2023-05-07T01:14:54;8.27;;;7.20;;
35961;SDS011;22044;48.298;10.008;2023-05-07T01:17:41;8.03;;;7.33;;
35961;SDS011;22044;48.298;10.008;2023-05-07T01:20:40;9.03;;;7.73;;
35961;SDS011;22044;48.298;10.008;2023-05-07T01:23:28;8.17;;;7.47;;
35961;SDS011;22044;48.298;10.008;2023-05-07T01:26:15;8.53;;;7.63;;
35961;SDS011;22044;48.298;10.008;2023-05-07T01:29:03;7.53;;;6.70;;
35961;SDS011;22044;48.298;10.008;2023-05-07T01:31:49;7.77;;;6.40;;
35961;SDS011;22044;48.298;10.008;2023-05-07T01:34:37;8.87;;;7.97;;
35961;SDS011;22044;48.298;10.008;2023-05-07T01:37:24;8.73;;;7.80;;
35961;SDS011;22044;48.298;10.008;2023-05-07T01:40:12;9.50;;;7.37;;
35961;SDS011;22044;48.298;10.008;2023-05-07T01:42:58;10.53;;;8.17;;
35961;SDS011;22044;48.298;10.008;2023-05-07T01:45:43;8.63;;;7.73;;
35961;SDS011;22044;48.298;10.008;2023-05-07T01:48:30;8.73;;;7.83;;
35961;SDS011;22044;48.298;10.008;2023-05-07T01:51:17;8.63;;;7.73;;
35961;SDS011;22044;48.298;10.008;2023-05-07T01:54:03;9.67;;;7.43;;
35961;SDS011;22044;48.298;10.008;2023-05-07T01:56:52;10.33;;;8.27;;
35961;SDS011;22044;48.298;10.008;2023-05-07T01:59:37;9.33;;;8.37;;
35961;SDS011;22044;48.298;10.008;2023-05-07T02:02:23;11.83;;;8.20;;
35961;SDS011;22044;48.298;10.008;2023-05-07T02:05:10;8.77;;;7.87;;
35961;SDS011;22044;48.298;10.008;2023-05-07T02:07:57;9.40;;;7.67;;
35961;SDS011;22044;48.298;10.008;2023-05-07T02:10:44;8.73;;;7.63;;
35961;SDS011;22044;48.298;10.008;2023-05-07T02:13:32;8.40;;;7.60;;
35961;SDS011;22044;48.298;10.008;2023-05-07T02:16:18;8.03;;;7.27;;
35961;SDS011;22044;48.298;10.008;2023-05-07T02:19:05;8.50;;;7.23;;
35961;SDS011;22044;48.298;10.008;2023-05-07T02:21:51;7.73;;;6.60;;
35961;SDS011;22044;48.298;10.008;2023-05-07T02:24:37;7.33;;;6.73;;
35961;SDS011;22044;48.298;10.008;2023-05-07T02:27:23;8.07;;;6.83;;
35961;SDS011;22044;48.298;10.008;2023-05-07T02:30:10;8.33;;;7.10;;
35961;SDS011;22044;48.298;10.008;2023-05-07T02:32:57;12.40;;;7.77;;
35961;SDS011;22044;48.298;10.008;2023-05-07T02:35:42;9.23;;;7.47;;
35961;SDS011;22044;48.298;10.008;2023-05-07T02:38:30;7.60;;;6.90;;
35961;SDS011;22044;48.298;10.008;2023-05-07T02:41:16;8.93;;;7.33;;
35961;SDS011;22044;48.298;10.008;2023-05-07T02:44:01;10.10;;;7.40;;
35961;SDS011;22044;48.298;10.008;2023-05-07T02:46:48;9.17;;;7.27;;
35961;SDS011;22044;48.298;10.008;2023-05-07T02:49:35;8.60;;;7.80;;
35961;SDS011;22044;48.298;10.008;2023-05-07T02:52:21;8.33;;;7.53;;
35961;SDS011;22044;48.298;10.008;2023-05-07T02:55:07;7.47;;;6.77;;
35961;SDS011;22044;48.298;10.008;2023-05-07T02:57:53;8.30;;;7.40;;
35961;SDS011;22044;48.298;10.008;2023-05-07T03:00:39;8.90;;;7.80;;
35961;SDS011;22044;48.298;10.008;2023-05-07T03:03:55;7.83;;;7.00;;
35961;SDS011;22044;48.298;10.008;2023-05-07T03:06:40;7.83;;;7.10;;
35961;SDS011;22044;48.298;10.008;2023-05-07T03:09:26;8.50;;;7.70;;
35961;SDS011;22044;48.298;10.008;2023-05-07T03:12:12;8.50;;;7.60;;
35961;SDS011;22044;48.298;10.008;2023-05-07T03:14:58;8.30;;;7.50;;
35961;SDS011;22044;48.298;10.008;2023-05-07T03:17:43;11.00;;;7.53;;
35961;SDS011;22044;48.298;10.008;2023-05-07T03:20:30;9.43;;;7.50;;
35961;SDS011;22044;48.298;10.008;2023-05-07T03:23:16;9.30;;;7.00;;
35961;SDS011;22044;48.298;10.008;2023-05-07T03:26:02;8.20;;;7.40;;
35961;SDS011;22044;48.298;10.008;2023-05-07T03:28:47;7.13;;;6.43;;
35961;SDS011;22044;48.298;10.008;2023-05-07T03:31:34;7.33;;;6.20;;
35961;SDS011;22044;48.298;10.008;2023-05-07T03:34:20;8.37;;;6.80;;
35961;SDS011;22044;48.298;10.008;2023-05-07T03:37:08;9.13;;;6.43;;
35961;SDS011;22044;48.298;10.008;2023-05-07T03:39:53;6.77;;;6.17;;
35961;SDS011;22044;48.298;10.008;2023-05-07T03:42:39;6.50;;;5.90;;
35961;SDS011;22044;48.298;10.008;2023-05-07T03:45:25;6.60;;;6.00;;
35961;SDS011;22044;48.298;10.008;2023-05-07T03:48:22;6.77;;;6.10;;
35961;SDS011;22044;48.298;10.008;2023-05-07T03:51:09;7.70;;;6.67;;
35961;SDS011;22044;48.298;10.008;2023-05-07T03:53:56;8.50;;;6.83;;
35961;SDS011;22044;48.298;10.008;2023-05-07T03:56:44;7.13;;;6.43;;
35961;SDS011;22044;48.298;10.008;2023-05-07T03:59:29;8.47;;;6.80;;
35961;SDS011;22044;48.298;10.008;2023-05-07T04:02:16;11.17;;;6.97;;
35961;SDS011;22044;48.298;10.008;2023-05-07T04:05:01;9.43;;;7.13;;
35961;SDS011;22044;48.298;10.008;2023-05-07T04:07:47;7.07;;;6.37;;
35961;SDS011;22044;48.298;10.008;2023-05-07T04:10:38;7.07;;;6.47;;
35961;SDS011;22044;48.298;10.008;2023-05-07T04:13:28;7.17;;;6.47;;
35961;SDS011;22044;48.298;10.008;2023-05-07T04:16:15;8.13;;;7.03;;
35961;SDS011;22044;48.298;10.008;2023-05-07T04:19:01;7.67;;;6.97;;
35961;SDS011;22044;48.298;10.008;2023-05-07T04:21:47;7.47;;;6.70;;
35961;SDS011;22044;48.298;10.008;2023-05-07T04:24:32;7.47;;;6.87;;
35961;SDS011;22044;48.298;10.008;2023-05-07T04:27:20;7.27;;;6.57;;
35961;SDS011;22044;48.298;10.008;2023-05-07T04:30:07;7.20;;;6.57;;
35961;SDS011;22044;48.298;10.008;2023-05-07T04:32:56;7.60;;;6.80;;
35961;SDS011;22044;48.298;10.008;2023-05-07T04:35:44;7.53;;;6.77;;
35961;SDS011;22044;48.298;10.008;2023-05-07T04:38:31;6.87;;;6.17;;
35961;SDS011;22044;48.298;10.008;2023-05-07T04:41:18;7.30;;;6.70;;
35961;SDS011;22044;48.298;10.008;2023-05-07T04:44:05;6.87;;;6.17;;
35961;SDS011;22044;48.298;10.008;2023-05-07T04:46:52;8.00;;;6.83;;
35961;SDS011;22044;48.298;10.008;2023-05-07T04:49:38;8.03;;;7.33;;
35961;SDS011;22044;48.298;10.008;2023-05-07T04:52:24;9.80;;;7.50;;
35961;SDS011;22044;48.298;10.008;2023-05-07T04:55:11;8.37;;;7.57;;
35961;SDS011;22044;48.298;10.008;2023-05-07T04:57:58;12.30;;;7.70;;
35961;SDS011;22044;48.298;10.008;2023-05-07T05:00:48;7.87;;;7.13;;
35961;SDS011;22044;48.298;10.008;2023-05-07T05:03:34;8.07;;;7.27;;
35961;SDS011;22044;48.298;10.008;2023-05-07T05:06:20;6.90;;;6.20;;
35961;SDS011;22044;48.298;10.008;2023-05-07T05:09:07;8.37;;;7.50;;
35961;SDS011;22044;48.298;10.008;2023-05-07T05:11:52;7.53;;;6.83;;
35961;SDS011;22044;48.298;10.008;2023-05-07T05:14:39;8.10;;;7.20;;
35961;SDS011;22044;48.298;10.008;2023-05-07T05:17:27;7.07;;;6.37;;
35961;SDS011;22044;48.298;10.008;2023-05-07T05:20:12;8.17;;;7.37;;
35961;SDS011;22044;48.298;10.008;2023-05-07T05:22:59;7.10;;;6.50;;
35961;SDS011;22044;48.298;10.008;2023-05-07T05:25:45;7.70;;;6.80;;
35961;SDS011;22044;48.298;10.008;2023-05-07T05:28:33;8.23;;;6.90;;
35961;SDS011;22044;48.298;10.008;2023-05-07T05:31:20;10.30;;;7.57;;
35961;SDS011;22044;48.298;10.008;2023-05-07T05:34:08;7.73;;;6.40;;
35961;SDS011;22044;48.298;10.008;2023-05-07T05:36:55;7.93;;;7.00;;
35961;SDS011;22044;48.298;10.008;2023-05-07T05:39:41;8.00;;;7.20;;
35961;SDS011;22044;48.298;10.008;2023-05-07T05:42:28;9.43;;;7.20;;
35961;SDS011;22044;48.298;10.008;2023-05-07T05:45:14;7.83;;;7.00;;
35961;SDS011;22044;48.298;10.008;2023-05-07T05:48:00;8.93;;;7.50;;
35961;SDS011;22044;48.298;10.008;2023-05-07T05:50:48;7.13;;;6.53;;
35961;SDS011;22044;48.298;10.008;2023-05-07T05:53:36;8.87;;;7.30;;
35961;SDS011;22044;48.298;10.008;2023-05-07T05:56:23;7.73;;;7.03;;
35961;SDS011;22044;48.298;10.008;2023-05-07T05:59:09;8.10;;;7.37;;
35961;SDS011;22044;48.298;10.008;2023-05-07T06:01:56;7.13;;;6.40;;
35961;SDS011;22044;48.298;10.008;2023-05-07T06:04:42;9.30;;;6.87;;
35961;SDS011;22044;48.298;10.008;2023-05-07T06:07:31;9.03;;;7.83;;
35961;SDS011;22044;48.298;10.008;2023-05-07T06:10:16;9.23;;;7.90;;
35961;SDS011;22044;48.298;10.008;2023-05-07T06:13:02;11.77;;;8.00;;
35961;SDS011;22044;48.298;10.008;2023-05-07T06:15:50;8.33;;;7.53;;
35961;SDS011;22044;48.298;10.008;2023-05-07T06:18:35;8.93;;;7.47;;
35961;SDS011;22044;48.298;10.008;2023-05-07T06:21:21;8.03;;;7.23;;
35961;SDS011;22044;48.298;10.008;2023-05-07T06:24:08;9.30;;;7.70;;
35961;SDS011;22044;48.298;10.008;2023-05-07T06:26:56;8.77;;;7.97;;
35961;SDS011;22044;48.298;10.008;2023-05-07T06:29:44;8.20;;;7.30;;
35961;SDS011;22044;48.298;10.008;2023-05-07T06:32:32;7.87;;;7.17;;
35961;SDS011;22044;48.298;10.008;2023-05-07T06:35:18;7.57;;;6.80;;
35961;SDS011;22044;48.298;10.008;2023-05-07T06:38:04;8.07;;;6.90;;
35961;SDS011;22044;48.298;10.008;2023-05-07T06:40:51;7.27;;;6.67;;
35961;SDS011;22044;48.298;10.008;2023-05-07T06:43:39;8.00;;;7.20;;
35961;SDS011;22044;48.298;10.008;2023-05-07T06:47:03;7.57;;;6.87;;
35961;SDS011;22044;48.298;10.008;2023-05-07T06:49:49;8.50;;;7.70;;
35961;SDS011;22044;48.298;10.008;2023-05-07T06:52:37;7.37;;;6.60;;
35961;SDS011;22044;48.298;10.008;2023-05-07T06:55:24;8.03;;;6.83;;
35961;SDS011;22044;48.298;10.008;2023-05-07T06:58:12;7.23;;;6.47;;
35961;SDS011;22044;48.298;10.008;2023-05-07T07:00:58;7.90;;;7.17;;
35961;SDS011;22044;48.298;10.008;2023-05-07T07:03:43;7.30;;;6.50;;
35961;SDS011;22044;48.298;10.008;2023-05-07T07:06:29;7.47;;;6.77;;
35961;SDS011;22044;48.298;10.008;2023-05-07T07:09:15;9.40;;;7.13;;
35961;SDS011;22044;48.298;10.008;2023-05-07T07:12:01;7.60;;;6.77;;
35961;SDS011;22044;48.298;10.008;2023-05-07T07:14:49;7.27;;;6.53;;
35961;SDS011;22044;48.298;10.008;2023-05-07T07:17:35;6.80;;;6.20;;
35961;SDS011;22044;48.298;10.008;2023-05-07T07:20:20;7.57;;;6.70;;
35961;SDS011;22044;48.298;10.008;2023-05-07T07:23:06;7.07;;;6.50;;
35961;SDS011;22044;48.298;10.008;2023-05-07T07:25:54;8.73;;;6.60;;
35961;SDS011;22044;48.298;10.008;2023-05-07T07:28:43;7.87;;;6.60;;
35961;SDS011;22044;48.298;10.008;2023-05-07T07:31:30;7.50;;;6.47;;
35961;SDS011;22044;48.298;10.008;2023-05-07T07:34:16;7.30;;;6.07;;
35961;SDS011;22044;48.298;10.008;2023-05-07T07:37:02;7.23;;;6.53;;
35961;SDS011;22044;48.298;10.008;2023-05-07T07:39:50;10.23;;;7.00;;
35961;SDS011;22044;48.298;10.008;2023-05-07T07:42:37;7.57;;;6.73;;
35961;SDS011;22044;48.298;10.008;2023-05-07T07:45:24;7.27;;;6.03;;
35961;SDS011;22044;48.298;10.008;2023-05-07T07:48:14;6.87;;;6.20;;
35961;SDS011;22044;48.298;10.008;2023-05-07T07:51:00;6.77;;;6.13;;
35961;SDS011;22044;48.298;10.008;2023-05-07T07:53:46;7.30;;;6.63;;
35961;SDS011;22044;48.298;10.008;2023-05-07T07:56:32;7.37;;;6.60;;
35961;SDS011;22044;48.298;10.008;2023-05-07T07:59:19;6.87;;;6.27;;
35961;SDS011;22044;48.298;10.008;2023-05-07T08:02:06;6.30;;;5.70;;
35961;SDS011;22044;48.298;10.008;2023-05-07T08:04:54;6.57;;;6.07;;
35961;SDS011;22044;48.298;10.008;2023-05-07T08:07:41;6.47;;;5.67;;
35961;SDS011;22044;48.298;10.008;2023-05-07T08:10:27;6.60;;;6.10;;
35961;SDS011;22044;48.298;10.008;2023-05-07T08:13:20;6.67;;;5.97;;
35961;SDS011;22044;48.298;10.008;2023-05-07T08:16:06;6.73;;;5.77;;
35961;SDS011;22044;48.298;10.008;2023-05-07T08:18:53;6.00;;;5.50;;
35961;SDS011;22044;48.298;10.008;2023-05-07T08:21:41;7.00;;;6.13;;
35961;SDS011;22044;48.298;10.008;2023-05-07T08:24:28;7.03;;;6.17;;
35961;SDS011;22044;48.298;10.008;2023-05-07T08:27:14;6.27;;;5.67;;
35961;SDS011;22044;48.298;10.008;2023-05-07T08:30:00;6.57;;;5.63;;
35961;SDS011;22044;48.298;10.008;2023-05-07T08:32:49;6.53;;;5.83;;
35961;SDS011;22044;48.298;10.008;2023-05-07T08:35:34;7.78;;;6.30;;
35961;SDS011;22044;48.298;10.008;2023-05-07T08:38:22;7.30;;;5.93;;
35961;SDS011;22044;48.298;10.008;2023-05-07T08:41:09;7.43;;;6.20;;
35961;SDS011;22044;48.298;10.008;2023-05-07T08:43:57;6.50;;;5.40;;
35961;SDS011;22044;48.298;10.008;2023-05-07T08:46:44;6.37;;;5.73;;
35961;SDS011;22044;48.298;10.008;2023-05-07T08:49:33;6.72;;;6.13;;
35961;SDS011;22044;48.298;10.008;2023-05-07T08:52:19;6.50;;;5.88;;
35961;SDS011;22044;48.298;10.008;2023-05-07T08:55:08;8.23;;;6.28;;
35961;SDS011;22044;48.298;10.008;2023-05-07T08:57:54;6.03;;;5.40;;
35961;SDS011;22044;48.298;10.008;2023-05-07T09:00:40;10.35;;;5.88;;
35961;SDS011;22044;48.298;10.008;2023-05-07T09:03:27;6.30;;;5.80;;
35961;SDS011;22044;48.298;10.008;2023-05-07T09:06:14;6.75;;;5.78;;
35961;SDS011;22044;48.298;10.008;2023-05-07T09:09:01;6.35;;;5.72;;
35961;SDS011;22044;48.298;10.008;2023-05-07T09:11:56;5.97;;;5.47;;
35961;SDS011;22044;48.298;10.008;2023-05-07T09:14:44;9.07;;;5.43;;
35961;SDS011;22044;48.298;10.008;2023-05-07T09:17:31;6.57;;;5.32;;
35961;SDS011;22044;48.298;10.008;2023-05-07T09:20:18;7.25;;;5.60;;
35961;SDS011;22044;48.298;10.008;2023-05-07T09:23:05;6.13;;;4.97;;
35961;SDS011;22044;48.298;10.008;2023-05-07T09:25:52;7.78;;;5.18;;
35961;SDS011;22044;48.298;10.008;2023-05-07T09:28:49;5.43;;;5.03;;
35961;SDS011;22044;48.298;10.008;2023-05-07T09:31:36;5.63;;;4.85;;
35961;SDS011;22044;48.298;10.008;2023-05-07T09:34:23;5.38;;;4.25;;
35961;SDS011;22044;48.298;10.008;2023-05-07T09:37:08;4.70;;;4.30;;
35961;SDS011;22044;48.298;10.008;2023-05-07T09:39:57;5.50;;;5.00;;
35961;SDS011;22044;48.298;10.008;2023-05-07T09:42:44;4.80;;;4.13;;
35961;SDS011;22044;48.298;10.008;2023-05-07T09:45:33;6.25;;;4.63;;
35961;SDS011;22044;48.298;10.008;2023-05-07T09:48:19;5.78;;;4.55;;
35961;SDS011;22044;48.298;10.008;2023-05-07T09:51:10;6.13;;;4.28;;
35961;SDS011;22044;48.298;10.008;2023-05-07T09:54:01;4.35;;;4.03;;
35961;SDS011;22044;48.298;10.008;2023-05-07T09:56:49;4.85;;;4.13;;
35961;SDS011;22044;48.298;10.008;2023-05-07T09:59:41;4.32;;;3.92;;
35961;SDS011;22044;48.298;10.008;2023-05-07T10:02:32;4.53;;;4.13;;
35961;SDS011;22044;48.298;10.008;2023-05-07T10:05:21;4.90;;;4.00;;
35961;SDS011;22044;48.298;10.008;2023-05-07T10:08:08;4.22;;;3.72;;
35961;SDS011;22044;48.298;10.008;2023-05-07T10:10:56;4.85;;;3.80;;
35961;SDS011;22044;48.298;10.008;2023-05-07T10:13:44;6.57;;;4.70;;
35961;SDS011;22044;48.298;10.008;2023-05-07T10:16:33;4.32;;;3.92;;
35961;SDS011;22044;48.298;10.008;2023-05-07T10:19:24;4.80;;;4.40;;
35961;SDS011;22044;48.298;10.008;2023-05-07T10:22:12;4.57;;;3.45;;
35961;SDS011;22044;48.298;10.008;2023-05-07T10:25:02;4.82;;;3.08;;
35961;SDS011;22044;48.298;10.008;2023-05-07T10:27:51;4.40;;;2.60;;
35961;SDS011;22044;48.298;10.008;2023-05-07T10:30:45;3.72;;;3.40;;
35961;SDS011;22044;48.298;10.008;2023-05-07T10:33:46;4.90;;;3.42;;
35961;SDS011;22044;48.298;10.008;2023-05-07T10:36:37;4.72;;;3.33;;
35961;SDS011;22044;48.298;10.008;2023-05-07T10:39:24;6.15;;;3.80;;
35961;SDS011;22044;48.298;10.008;2023-05-07T10:42:10;2.50;;;2.30;;
35961;SDS011;22044;48.298;10.008;2023-05-07T10:45:11;5.63;;;3.10;;
35961;SDS011;22044;48.298;10.008;2023-05-07T10:48:07;6.93;;;3.95;;
35961;SDS011;22044;48.298;10.008;2023-05-07T10:57:32;4.03;;;3.45;;
35961;SDS011;22044;48.298;10.008;2023-05-07T11:00:41;3.95;;;3.65;;
35961;SDS011;22044;48.298;10.008;2023-05-07T11:03:35;4.47;;;3.78;;
35961;SDS011;22044;48.298;10.008;2023-05-07T11:06:41;4.40;;;4.00;;
35961;SDS011;22044;48.298;10.008;2023-05-07T11:13:06;4.85;;;3.50;;
35961;SDS011;22044;48.298;10.008;2023-05-07T11:16:01;3.38;;;3.08;;
35961;SDS011;22044;48.298;10.008;2023-05-07T11:18:55;3.55;;;3.20;;
35961;SDS011;22044;48.298;10.008;2023-05-07T11:21:56;6.45;;;3.03;;
35961;SDS011;22044;48.298;10.008;2023-05-07T11:24:56;3.28;;;2.80;;
35961;SDS011;22044;48.298;10.008;2023-05-07T11:27:44;5.80;;;2.97;;
35961;SDS011;22044;48.298;10.008;2023-05-07T11:30:32;3.60;;;2.78;;
35961;SDS011;22044;48.298;10.008;2023-05-07T11:33:18;3.22;;;2.83;;
35961;SDS011;22044;48.298;10.008;2023-05-07T11:36:07;3.20;;;2.90;;
35961;SDS011;22044;48.298;10.008;2023-05-07T11:38:59;6.55;;;2.90;;
35961;SDS011;22044;48.298;10.008;2023-05-07T11:41:44;3.67;;;2.92;;
35961;SDS011;22044;48.298;10.008;2023-05-07T11:44:40;4.50;;;3.30;;
35961;SDS011;22044;48.298;10.008;2023-05-07T11:47:29;3.67;;;2.83;;
35961;SDS011;22044;48.298;10.008;2023-05-07T11:50:15;3.85;;;2.60;;
35961;SDS011;22044;48.298;10.008;2023-05-07T11:53:06;3.97;;;2.70;;
35961;SDS011;22044;48.298;10.008;2023-05-07T11:55:52;3.53;;;2.60;;
35961;SDS011;22044;48.298;10.008;2023-05-07T11:58:38;3.97;;;2.70;;
35961;SDS011;22044;48.298;10.008;2023-05-07T12:01:24;3.85;;;2.42;;
35961;SDS011;22044;48.298;10.008;2023-05-07T12:04:10;3.90;;;2.60;;
35961;SDS011;22044;48.298;10.008;2023-05-07T12:06:56;3.75;;;2.70;;
35961;SDS011;22044;48.298;10.008;2023-05-07T12:09:42;3.58;;;2.95;;
35961;SDS011;22044;48.298;10.008;2023-05-07T12:12:28;3.05;;;2.78;;
35961;SDS011;22044;48.298;10.008;2023-05-07T12:15:15;3.90;;;2.80;;
35961;SDS011;22044;48.298;10.008;2023-05-07T12:18:00;2.63;;;2.42;;
35961;SDS011;22044;48.298;10.008;2023-05-07T12:20:48;3.00;;;2.40;;
35961;SDS011;22044;48.298;10.008;2023-05-07T12:23:34;5.32;;;2.95;;
35961;SDS011;22044;48.298;10.008;2023-05-07T12:26:21;5.68;;;2.75;;
35961;SDS011;22044;48.298;10.008;2023-05-07T12:29:09;4.65;;;2.63;;
35961;SDS011;22044;48.298;10.008;2023-05-07T12:31:55;5.05;;;2.40;;
35961;SDS011;22044;48.298;10.008;2023-05-07T12:34:41;5.90;;;2.63;;
35961;SDS011;22044;48.298;10.008;2023-05-07T12:37:28;2.92;;;2.55;;
35961;SDS011;22044;48.298;10.008;2023-05-07T12:40:14;3.85;;;2.42;;
35961;SDS011;22044;48.298;10.008;2023-05-07T12:42:59;4.45;;;2.40;;
35961;SDS011;22044;48.298;10.008;2023-05-07T12:45:45;4.45;;;2.47;;
35961;SDS011;22044;48.298;10.008;2023-05-07T12:48:32;3.03;;;2.58;;
35961;SDS011;22044;48.298;10.008;2023-05-07T12:51:18;2.72;;;2.53;;
35961;SDS011;22044;48.298;10.008;2023-05-07T12:54:05;2.78;;;2.28;;
35961;SDS011;22044;48.298;10.008;2023-05-07T12:56:51;2.50;;;2.25;;
35961;SDS011;22044;48.298;10.008;2023-05-07T12:59:47;2.30;;;2.10;;
35961;SDS011;22044;48.298;10.008;2023-05-07T13:02:32;2.40;;;2.13;;
35961;SDS011;22044;48.298;10.008;2023-05-07T13:05:21;2.47;;;2.03;;
35961;SDS011;22044;48.298;10.008;2023-05-07T13:08:06;4.05;;;2.30;;
35961;SDS011;22044;48.298;10.008;2023-05-07T13:10:54;4.28;;;2.13;;
35961;SDS011;22044;48.298;10.008;2023-05-07T13:13:40;6.38;;;2.60;;
35961;SDS011;22044;48.298;10.008;2023-05-07T13:16:26;3.58;;;2.30;;
35961;SDS011;22044;48.298;10.008;2023-05-07T13:19:11;3.53;;;2.20;;
35961;SDS011;22044;48.298;10.008;2023-05-07T13:21:57;2.35;;;2.15;;
35961;SDS011;22044;48.298;10.008;2023-05-07T13:24:43;4.30;;;2.17;;
35961;SDS011;22044;48.298;10.008;2023-05-07T13:27:29;2.80;;;2.40;;
35961;SDS011;22044;48.298;10.008;2023-05-07T13:30:15;2.38;;;2.10;;
35961;SDS011;22044;48.298;10.008;2023-05-07T13:33:00;2.47;;;2.28;;
35961;SDS011;22044;48.298;10.008;2023-05-07T13:35:46;5.22;;;2.58;;
35961;SDS011;22044;48.298;10.008;2023-05-07T13:38:32;4.00;;;2.45;;
35961;SDS011;22044;48.298;10.008;2023-05-07T13:41:17;2.30;;;2.08;;
35961;SDS011;22044;48.298;10.008;2023-05-07T13:44:05;3.70;;;2.20;;
35961;SDS011;22044;48.298;10.008;2023-05-07T13:46:50;2.45;;;2.25;;
35961;SDS011;22044;48.298;10.008;2023-05-07T13:49:36;3.83;;;2.95;;
35961;SDS011;22044;48.298;10.008;2023-05-07T13:52:22;3.67;;;2.95;;
35961;SDS011;22044;48.298;10.008;2023-05-07T13:55:07;4.13;;;2.90;;
35961;SDS011;22044;48.298;10.008;2023-05-07T13:57:54;3.90;;;2.60;;
35961;SDS011;22044;48.298;10.008;2023-05-07T14:00:42;2.72;;;2.33;;
35961;SDS011;22044;48.298;10.008;2023-05-07T14:03:27;4.28;;;1.90;;
35961;SDS011;22044;48.298;10.008;2023-05-07T14:06:15;3.08;;;2.17;;
35961;SDS011;22044;48.298;10.008;2023-05-07T14:09:01;4.00;;;2.42;;
35961;SDS011;22044;48.298;10.008;2023-05-07T14:11:46;3.35;;;2.20;;
35961;SDS011;22044;48.298;10.008;2023-05-07T14:14:34;3.90;;;2.75;;
35961;SDS011;22044;48.298;10.008;2023-05-07T14:17:21;3.30;;;2.08;;
35961;SDS011;22044;48.298;10.008;2023-05-07T14:20:12;3.38;;;1.98;;
35961;SDS011;22044;48.298;10.008;2023-05-07T14:22:58;3.60;;;1.83;;
35961;SDS011;22044;48.298;10.008;2023-05-07T14:25:43;3.67;;;2.70;;
35961;SDS011;22044;48.298;10.008;2023-05-07T14:28:31;3.60;;;2.15;;
35961;SDS011;22044;48.298;10.008;2023-05-07T14:31:16;2.90;;;2.00;;
35961;SDS011;22044;48.298;10.008;2023-05-07T14:34:03;3.20;;;2.10;;
35961;SDS011;22044;48.298;10.008;2023-05-07T14:36:49;2.80;;;2.13;;
35961;SDS011;22044;48.298;10.008;2023-05-07T14:39:35;2.85;;;1.88;;
35961;SDS011;22044;48.298;10.008;2023-05-07T14:42:22;1.95;;;1.70;;
35961;SDS011;22044;48.298;10.008;2023-05-07T14:45:08;3.40;;;1.85;;
35961;SDS011;22044;48.298;10.008;2023-05-07T14:47:54;3.22;;;2.35;;
35961;SDS011;22044;48.298;10.008;2023-05-07T14:50:41;3.45;;;2.47;;
35961;SDS011;22044;48.298;10.008;2023-05-07T14:53:27;4.07;;;2.92;;
35961;SDS011;22044;48.298;10.008;2023-05-07T14:56:12;4.82;;;3.03;;
35961;SDS011;22044;48.298;10.008;2023-05-07T14:58:58;4.07;;;2.70;;
35961;SDS011;22044;48.298;10.008;2023-05-07T15:01:43;4.30;;;2.80;;
35961;SDS011;22044;48.298;10.008;2023-05-07T15:04:29;4.78;;;2.97;;
35961;SDS011;22044;48.298;10.008;2023-05-07T15:07:16;5.25;;;2.65;;
35961;SDS011;22044;48.298;10.008;2023-05-07T15:10:01;4.32;;;2.60;;
35961;SDS011;22044;48.298;10.008;2023-05-07T15:12:47;5.55;;;3.20;;
35961;SDS011;22044;48.298;10.008;2023-05-07T15:15:32;3.15;;;2.50;;
35961;SDS011;22044;48.298;10.008;2023-05-07T15:18:19;3.97;;;2.83;;
35961;SDS011;22044;48.298;10.008;2023-05-07T15:21:05;3.92;;;3.00;;
35961;SDS011;22044;48.298;10.008;2023-05-07T15:23:52;8.65;;;3.50;;
35961;SDS011;22044;48.298;10.008;2023-05-07T15:26:38;3.90;;;3.40;;
35961;SDS011;22044;48.298;10.008;2023-05-07T15:29:24;6.75;;;3.53;;
35961;SDS011;22044;48.298;10.008;2023-05-07T15:32:09;3.80;;;3.35;;
35961;SDS011;22044;48.298;10.008;2023-05-07T15:34:55;2.92;;;2.55;;
35961;SDS011;22044;48.298;10.008;2023-05-07T15:37:41;4.60;;;2.90;;
35961;SDS011;22044;48.298;10.008;2023-05-07T15:40:28;3.42;;;2.60;;
35961;SDS011;22044;48.298;10.008;2023-05-07T15:43:14;4.05;;;3.20;;
35961;SDS011;22044;48.298;10.008;2023-05-07T15:45:59;6.03;;;3.15;;
35961;SDS011;22044;48.298;10.008;2023-05-07T15:48:45;3.17;;;2.88;;
35961;SDS011;22044;48.298;10.008;2023-05-07T15:51:33;2.47;;;2.28;;
35961;SDS011;22044;48.298;10.008;2023-05-07T15:54:19;4.30;;;2.42;;
35961;SDS011;22044;48.298;10.008;2023-05-07T15:57:08;4.05;;;2.30;;
35961;SDS011;22044;48.298;10.008;2023-05-07T15:59:54;2.97;;;2.20;;
35961;SDS011;22044;48.298;10.008;2023-05-07T16:02:40;4.57;;;2.47;;
35961;SDS011;22044;48.298;10.008;2023-05-07T16:05:25;5.47;;;2.63;;
35961;SDS011;22044;48.298;10.008;2023-05-07T16:08:13;3.87;;;2.00;;
35961;SDS011;22044;48.298;10.008;2023-05-07T16:10:58;2.43;;;2.20;;
35961;SDS011;22044;48.298;10.008;2023-05-07T16:13:45;2.60;;;2.20;;
35961;SDS011;22044;48.298;10.008;2023-05-07T16:16:31;2.10;;;1.80;;
35961;SDS011;22044;48.298;10.008;2023-05-07T16:19:17;3.50;;;2.17;;
35961;SDS011;22044;48.298;10.008;2023-05-07T16:22:04;3.37;;;2.10;;
35961;SDS011;22044;48.298;10.008;2023-05-07T16:24:50;3.40;;;2.20;;
35961;SDS011;22044;48.298;10.008;2023-05-07T16:27:35;5.40;;;2.20;;
35961;SDS011;22044;48.298;10.008;2023-05-07T16:30:23;4.07;;;2.70;;
35961;SDS011;22044;48.298;10.008;2023-05-07T16:33:08;5.13;;;2.97;;
35961;SDS011;22044;48.298;10.008;2023-05-07T16:35:54;4.90;;;2.80;;
35961;SDS011;22044;48.298;10.008;2023-05-07T16:38:39;4.50;;;3.83;;
35961;SDS011;22044;48.298;10.008;2023-05-07T16:41:25;6.23;;;4.43;;